sensor_id;sensor_type;location;lat;lon;timestamp;P1;durP1;ratioP1;P2;durP2;ratioP2
18407;SDS011;9330;52.210;21.174;2023-07-20T00:00:05;2.47;;;2.17;;
18407;SDS011;9330;52.210;21.174;2023-07-20T00:02:33;2.30;;;1.52;;
18407;SDS011;9330;52.210;21.174;2023-07-20T00:05:00;5.65;;;2.03;;
18407;SDS011;9330;52.210;21.174;2023-07-20T00:07:27;2.92;;;1.80;;
18407;SDS011;9330;52.210;21.174;2023-07-20T00:09:54;2.45;;;1.67;;
18407;SDS011;9330;52.210;21.174;2023-07-20T00:12:20;2.78;;;2.00;;
18407;SDS011;9330;52.210;21.174;2023-07-20T00:14:48;4.20;;;2.08;;
18407;SDS011;9330;52.210;21.174;2023-07-20T00:17:18;3.75;;;2.10;;
18407;SDS011;9330;52.210;21.174;2023-07-20T00:19:46;2.97;;;2.22;;
18407;SDS011;9330;52.210;21.174;2023-07-20T00:22:16;3.28;;;2.28;;
18407;SDS011;9330;52.210;21.174;2023-07-20T00:24:43;2.90;;;2.03;;
18407;SDS011;9330;52.210;21.174;2023-07-20T00:27:10;2.35;;;1.88;;
18407;SDS011;9330;52.210;21.174;2023-07-20T00:29:36;2.63;;;1.90;;
18407;SDS011;9330;52.210;21.174;2023-07-20T00:32:05;3.53;;;2.15;;
18407;SDS011;9330;52.210;21.174;2023-07-20T00:34:32;4.50;;;1.90;;
18407;SDS011;9330;52.210;21.174;2023-07-20T00:36:59;3.50;;;1.80;;
18407;SDS011;9330;52.210;21.174;2023-07-20T00:39:27;3.13;;;1.80;;
18407;SDS011;9330;52.210;21.174;2023-07-20T00:41:55;2.30;;;2.08;;
18407;SDS011;9330;52.210;21.174;2023-07-20T00:44:22;3.42;;;2.00;;
18407;SDS011;9330;52.210;21.174;2023-07-20T00:46:49;2.95;;;1.95;;
18407;SDS011;9330;52.210;21.174;2023-07-20T00:49:17;3.65;;;2.05;;
18407;SDS011;9330;52.210;21.174;2023-07-20T00:51:46;2.40;;;2.10;;
18407;SDS011;9330;52.210;21.174;2023-07-20T00:54:14;2.10;;;1.70;;
18407;SDS011;9330;52.210;21.174;2023-07-20T00:56:41;2.95;;;1.80;;
18407;SDS011;9330;52.210;21.174;2023-07-20T00:59:08;3.70;;;1.73;;
18407;SDS011;9330;52.210;21.174;2023-07-20T01:01:36;2.72;;;2.05;;
18407;SDS011;9330;52.210;21.174;2023-07-20T01:04:03;4.72;;;2.22;;
18407;SDS011;9330;52.210;21.174;2023-07-20T01:06:33;2.80;;;2.05;;
18407;SDS011;9330;52.210;21.174;2023-07-20T01:09:11;3.20;;;2.10;;
18407;SDS011;9330;52.210;21.174;2023-07-20T01:11:45;2.45;;;1.90;;
18407;SDS011;9330;52.210;21.174;2023-07-20T01:14:20;2.67;;;2.00;;
18407;SDS011;9330;52.210;21.174;2023-07-20T01:16:48;3.15;;;2.10;;
18407;SDS011;9330;52.210;21.174;2023-07-20T01:19:17;4.57;;;2.13;;
18407;SDS011;9330;52.210;21.174;2023-07-20T01:21:47;2.38;;;1.90;;
18407;SDS011;9330;52.210;21.174;2023-07-20T01:27:32;3.25;;;2.10;;
18407;SDS011;9330;52.210;21.174;2023-07-20T01:30:27;5.32;;;2.15;;
18407;SDS011;9330;52.210;21.174;2023-07-20T01:33:15;3.72;;;2.28;;
18407;SDS011;9330;52.210;21.174;2023-07-20T01:35:43;3.50;;;2.72;;
18407;SDS011;9330;52.210;21.174;2023-07-20T01:38:12;3.90;;;3.10;;
18407;SDS011;9330;52.210;21.174;2023-07-20T01:40:40;5.38;;;4.75;;
18407;SDS011;9330;52.210;21.174;2023-07-20T01:43:08;6.65;;;4.70;;
18407;SDS011;9330;52.210;21.174;2023-07-20T01:45:35;8.65;;;5.32;;
18407;SDS011;9330;52.210;21.174;2023-07-20T01:48:02;6.63;;;5.50;;
18407;SDS011;9330;52.210;21.174;2023-07-20T01:50:31;6.32;;;5.50;;
18407;SDS011;9330;52.210;21.174;2023-07-20T01:52:59;7.63;;;6.10;;
18407;SDS011;9330;52.210;21.174;2023-07-20T01:55:26;6.57;;;4.60;;
18407;SDS011;9330;52.210;21.174;2023-07-20T01:57:54;4.63;;;3.83;;
18407;SDS011;9330;52.210;21.174;2023-07-20T02:00:22;13.45;;;3.42;;
18407;SDS011;9330;52.210;21.174;2023-07-20T02:02:50;3.33;;;2.78;;
18407;SDS011;9330;52.210;21.174;2023-07-20T02:05:17;3.60;;;3.03;;
18407;SDS011;9330;52.210;21.174;2023-07-20T02:07:46;4.38;;;3.13;;
18407;SDS011;9330;52.210;21.174;2023-07-20T02:10:13;4.07;;;2.80;;
18407;SDS011;9330;52.210;21.174;2023-07-20T02:12:40;3.90;;;3.00;;
18407;SDS011;9330;52.210;21.174;2023-07-20T02:15:07;4.47;;;2.80;;
18407;SDS011;9330;52.210;21.174;2023-07-20T02:17:35;4.13;;;2.75;;
18407;SDS011;9330;52.210;21.174;2023-07-20T02:20:02;3.97;;;3.17;;
18407;SDS011;9330;52.210;21.174;2023-07-20T02:22:30;4.47;;;2.85;;
18407;SDS011;9330;52.210;21.174;2023-07-20T02:24:58;5.30;;;3.13;;
18407;SDS011;9330;52.210;21.174;2023-07-20T02:27:25;7.03;;;2.88;;
18407;SDS011;9330;52.210;21.174;2023-07-20T02:29:52;3.65;;;2.65;;
18407;SDS011;9330;52.210;21.174;2023-07-20T02:32:19;4.53;;;2.67;;
18407;SDS011;9330;52.210;21.174;2023-07-20T02:34:46;4.65;;;2.72;;
18407;SDS011;9330;52.210;21.174;2023-07-20T02:37:13;3.55;;;2.55;;
18407;SDS011;9330;52.210;21.174;2023-07-20T02:39:40;4.53;;;2.80;;
18407;SDS011;9330;52.210;21.174;2023-07-20T02:42:09;3.33;;;2.75;;
18407;SDS011;9330;52.210;21.174;2023-07-20T02:44:36;5.38;;;3.00;;
18407;SDS011;9330;52.210;21.174;2023-07-20T02:47:03;2.72;;;2.47;;
18407;SDS011;9330;52.210;21.174;2023-07-20T02:49:30;3.70;;;2.70;;
18407;SDS011;9330;52.210;21.174;2023-07-20T02:51:57;4.00;;;2.92;;
18407;SDS011;9330;52.210;21.174;2023-07-20T02:54:24;2.88;;;2.45;;
18407;SDS011;9330;52.210;21.174;2023-07-20T02:56:51;3.63;;;2.72;;
18407;SDS011;9330;52.210;21.174;2023-07-20T02:59:20;5.30;;;2.80;;
18407;SDS011;9330;52.210;21.174;2023-07-20T03:01:47;5.07;;;2.63;;
18407;SDS011;9330;52.210;21.174;2023-07-20T03:04:14;5.35;;;2.70;;
18407;SDS011;9330;52.210;21.174;2023-07-20T03:06:41;4.63;;;2.83;;
18407;SDS011;9330;52.210;21.174;2023-07-20T03:09:08;3.42;;;2.53;;
18407;SDS011;9330;52.210;21.174;2023-07-20T03:11:35;3.13;;;2.60;;
18407;SDS011;9330;52.210;21.174;2023-07-20T03:14:02;4.10;;;2.95;;
18407;SDS011;9330;52.210;21.174;2023-07-20T03:16:31;3.90;;;2.70;;
18407;SDS011;9330;52.210;21.174;2023-07-20T03:18:58;4.57;;;2.70;;
18407;SDS011;9330;52.210;21.174;2023-07-20T03:21:26;3.85;;;2.67;;
18407;SDS011;9330;52.210;21.174;2023-07-20T03:23:53;8.55;;;2.80;;
18407;SDS011;9330;52.210;21.174;2023-07-20T03:26:20;2.88;;;2.45;;
18407;SDS011;9330;52.210;21.174;2023-07-20T03:28:47;2.75;;;2.42;;
18407;SDS011;9330;52.210;21.174;2023-07-20T03:31:14;2.95;;;2.20;;
18407;SDS011;9330;52.210;21.174;2023-07-20T03:33:43;3.65;;;2.50;;
18407;SDS011;9330;52.210;21.174;2023-07-20T03:36:10;2.95;;;2.63;;
18407;SDS011;9330;52.210;21.174;2023-07-20T03:38:37;5.10;;;2.22;;
18407;SDS011;9330;52.210;21.174;2023-07-20T03:41:04;3.28;;;2.63;;
18407;SDS011;9330;52.210;21.174;2023-07-20T03:43:31;5.13;;;3.03;;
18407;SDS011;9330;52.210;21.174;2023-07-20T03:45:58;3.38;;;2.60;;
18407;SDS011;9330;52.210;21.174;2023-07-20T03:48:25;4.13;;;2.70;;
18407;SDS011;9330;52.210;21.174;2023-07-20T03:50:54;4.40;;;2.95;;
18407;SDS011;9330;52.210;21.174;2023-07-20T03:53:21;5.43;;;3.20;;
18407;SDS011;9330;52.210;21.174;2023-07-20T03:55:48;3.65;;;2.67;;
18407;SDS011;9330;52.210;21.174;2023-07-20T03:58:17;4.72;;;2.80;;
18407;SDS011;9330;52.210;21.174;2023-07-20T04:00:45;4.05;;;2.47;;
18407;SDS011;9330;52.210;21.174;2023-07-20T04:03:12;5.22;;;2.47;;
18407;SDS011;9330;52.210;21.174;2023-07-20T04:05:39;3.53;;;2.70;;
18407;SDS011;9330;52.210;21.174;2023-07-20T04:08:08;3.60;;;2.65;;
18407;SDS011;9330;52.210;21.174;2023-07-20T04:10:36;4.72;;;3.20;;
18407;SDS011;9330;52.210;21.174;2023-07-20T04:13:03;3.65;;;2.55;;
18407;SDS011;9330;52.210;21.174;2023-07-20T04:15:31;3.15;;;2.38;;
18407;SDS011;9330;52.210;21.174;2023-07-20T04:17:58;3.92;;;2.85;;
18407;SDS011;9330;52.210;21.174;2023-07-20T04:20:26;3.78;;;2.72;;
18407;SDS011;9330;52.210;21.174;2023-07-20T04:22:53;5.03;;;2.90;;
18407;SDS011;9330;52.210;21.174;2023-07-20T04:25:21;4.97;;;3.05;;
18407;SDS011;9330;52.210;21.174;2023-07-20T04:27:48;3.20;;;2.90;;
18407;SDS011;9330;52.210;21.174;2023-07-20T04:30:17;3.83;;;2.60;;
18407;SDS011;9330;52.210;21.174;2023-07-20T04:32:46;3.72;;;2.42;;
18407;SDS011;9330;52.210;21.174;2023-07-20T04:35:16;4.18;;;3.05;;
18407;SDS011;9330;52.210;21.174;2023-07-20T04:37:44;6.15;;;3.05;;
18407;SDS011;9330;52.210;21.174;2023-07-20T04:40:12;3.47;;;3.03;;
18407;SDS011;9330;52.210;21.174;2023-07-20T04:42:43;5.55;;;3.08;;
18407;SDS011;9330;52.210;21.174;2023-07-20T04:45:10;5.28;;;3.28;;
18407;SDS011;9330;52.210;21.174;2023-07-20T04:47:38;5.88;;;3.50;;
18407;SDS011;9330;52.210;21.174;2023-07-20T04:50:05;5.22;;;3.40;;
18407;SDS011;9330;52.210;21.174;2023-07-20T04:52:32;5.55;;;3.03;;
18407;SDS011;9330;52.210;21.174;2023-07-20T04:54:59;4.97;;;3.17;;
18407;SDS011;9330;52.210;21.174;2023-07-20T04:57:29;4.00;;;3.22;;
18407;SDS011;9330;52.210;21.174;2023-07-20T04:59:58;5.03;;;3.30;;
18407;SDS011;9330;52.210;21.174;2023-07-20T05:02:25;5.13;;;3.17;;
18407;SDS011;9330;52.210;21.174;2023-07-20T05:04:52;3.80;;;3.28;;
18407;SDS011;9330;52.210;21.174;2023-07-20T05:07:19;5.35;;;3.45;;
18407;SDS011;9330;52.210;21.174;2023-07-20T05:09:46;3.17;;;2.75;;
18407;SDS011;9330;52.210;21.174;2023-07-20T05:12:13;4.03;;;3.05;;
18407;SDS011;9330;52.210;21.174;2023-07-20T05:14:40;4.68;;;3.17;;
18407;SDS011;9330;52.210;21.174;2023-07-20T05:17:09;3.50;;;3.08;;
18407;SDS011;9330;52.210;21.174;2023-07-20T05:19:36;5.93;;;2.97;;
18407;SDS011;9330;52.210;21.174;2023-07-20T05:22:03;4.63;;;3.40;;
18407;SDS011;9330;52.210;21.174;2023-07-20T05:24:30;4.75;;;3.15;;
18407;SDS011;9330;52.210;21.174;2023-07-20T05:26:58;5.13;;;3.38;;
18407;SDS011;9330;52.210;21.174;2023-07-20T05:29:25;5.60;;;3.70;;
18407;SDS011;9330;52.210;21.174;2023-07-20T05:31:52;3.80;;;3.20;;
18407;SDS011;9330;52.210;21.174;2023-07-20T05:34:20;5.20;;;3.65;;
18407;SDS011;9330;52.210;21.174;2023-07-20T05:36:48;4.55;;;3.35;;
18407;SDS011;9330;52.210;21.174;2023-07-20T05:39:16;5.63;;;3.28;;
18407;SDS011;9330;52.210;21.174;2023-07-20T05:41:43;4.70;;;3.42;;
18407;SDS011;9330;52.210;21.174;2023-07-20T05:44:09;4.75;;;3.65;;
18407;SDS011;9330;52.210;21.174;2023-07-20T05:46:36;3.65;;;3.03;;
18407;SDS011;9330;52.210;21.174;2023-07-20T05:49:03;4.97;;;3.53;;
18407;SDS011;9330;52.210;21.174;2023-07-20T05:51:31;5.10;;;4.03;;
18407;SDS011;9330;52.210;21.174;2023-07-20T05:53:58;4.07;;;3.35;;
18407;SDS011;9330;52.210;21.174;2023-07-20T05:56:25;4.72;;;3.60;;
18407;SDS011;9330;52.210;21.174;2023-07-20T05:58:52;4.57;;;3.65;;
18407;SDS011;9330;52.210;21.174;2023-07-20T06:01:19;4.50;;;3.88;;
18407;SDS011;9330;52.210;21.174;2023-07-20T06:03:45;6.15;;;3.60;;
18407;SDS011;9330;52.210;21.174;2023-07-20T06:06:12;4.93;;;3.67;;
18407;SDS011;9330;52.210;21.174;2023-07-20T06:08:41;5.68;;;4.20;;
18407;SDS011;9330;52.210;21.174;2023-07-20T06:11:08;6.47;;;3.88;;
18407;SDS011;9330;52.210;21.174;2023-07-20T06:13:35;9.23;;;5.07;;
18407;SDS011;9330;52.210;21.174;2023-07-20T06:16:02;4.90;;;3.47;;
18407;SDS011;9330;52.210;21.174;2023-07-20T06:18:30;5.45;;;4.15;;
18407;SDS011;9330;52.210;21.174;2023-07-20T06:20:57;7.57;;;3.65;;
18407;SDS011;9330;52.210;21.174;2023-07-20T06:23:24;4.82;;;3.45;;
18407;SDS011;9330;52.210;21.174;2023-07-20T06:25:52;5.22;;;4.20;;
18407;SDS011;9330;52.210;21.174;2023-07-20T06:28:19;5.55;;;4.22;;
18407;SDS011;9330;52.210;21.174;2023-07-20T06:30:46;5.22;;;4.03;;
18407;SDS011;9330;52.210;21.174;2023-07-20T06:33:13;5.47;;;4.10;;
18407;SDS011;9330;52.210;21.174;2023-07-20T06:35:41;5.25;;;4.50;;
18407;SDS011;9330;52.210;21.174;2023-07-20T06:38:08;6.28;;;4.70;;
18407;SDS011;9330;52.210;21.174;2023-07-20T06:40:35;5.80;;;4.57;;
18407;SDS011;9330;52.210;21.174;2023-07-20T06:43:04;5.70;;;3.95;;
18407;SDS011;9330;52.210;21.174;2023-07-20T06:45:30;5.22;;;3.97;;
18407;SDS011;9330;52.210;21.174;2023-07-20T06:47:57;5.43;;;4.30;;
18407;SDS011;9330;52.210;21.174;2023-07-20T06:50:24;6.93;;;5.10;;
18407;SDS011;9330;52.210;21.174;2023-07-20T06:52:51;7.18;;;4.60;;
18407;SDS011;9330;52.210;21.174;2023-07-20T06:55:17;6.20;;;5.05;;
18407;SDS011;9330;52.210;21.174;2023-07-20T06:57:44;6.60;;;5.22;;
18407;SDS011;9330;52.210;21.174;2023-07-20T07:00:13;6.97;;;5.20;;
18407;SDS011;9330;52.210;21.174;2023-07-20T07:02:40;5.18;;;4.63;;
18407;SDS011;9330;52.210;21.174;2023-07-20T07:05:07;5.18;;;4.25;;
18407;SDS011;9330;52.210;21.174;2023-07-20T07:07:34;5.95;;;4.90;;
18407;SDS011;9330;52.210;21.174;2023-07-20T07:10:01;5.07;;;4.28;;
18407;SDS011;9330;52.210;21.174;2023-07-20T07:12:31;4.80;;;4.18;;
18407;SDS011;9330;52.210;21.174;2023-07-20T07:14:58;5.43;;;4.55;;
18407;SDS011;9330;52.210;21.174;2023-07-20T07:17:26;5.60;;;4.30;;
18407;SDS011;9330;52.210;21.174;2023-07-20T07:19:53;4.57;;;4.10;;
18407;SDS011;9330;52.210;21.174;2023-07-20T07:22:21;5.60;;;4.13;;
18407;SDS011;9330;52.210;21.174;2023-07-20T07:24:48;6.93;;;4.28;;
18407;SDS011;9330;52.210;21.174;2023-07-20T07:27:15;5.00;;;3.83;;
18407;SDS011;9330;52.210;21.174;2023-07-20T07:29:42;4.72;;;3.30;;
18407;SDS011;9330;52.210;21.174;2023-07-20T07:32:09;4.63;;;3.83;;
18407;SDS011;9330;52.210;21.174;2023-07-20T07:34:38;4.55;;;4.13;;
18407;SDS011;9330;52.210;21.174;2023-07-20T07:37:05;5.03;;;3.90;;
18407;SDS011;9330;52.210;21.174;2023-07-20T07:39:32;6.45;;;4.00;;
18407;SDS011;9330;52.210;21.174;2023-07-20T07:41:58;4.72;;;3.75;;
18407;SDS011;9330;52.210;21.174;2023-07-20T07:44:25;4.68;;;3.95;;
18407;SDS011;9330;52.210;21.174;2023-07-20T07:46:52;4.90;;;3.42;;
18407;SDS011;9330;52.210;21.174;2023-07-20T07:49:19;5.53;;;4.07;;
18407;SDS011;9330;52.210;21.174;2023-07-20T07:51:47;5.22;;;3.10;;
18407;SDS011;9330;52.210;21.174;2023-07-20T07:54:14;5.15;;;3.47;;
18407;SDS011;9330;52.210;21.174;2023-07-20T07:56:41;4.40;;;3.75;;
18407;SDS011;9330;52.210;21.174;2023-07-20T07:59:09;6.13;;;3.70;;
18407;SDS011;9330;52.210;21.174;2023-07-20T08:01:36;4.65;;;3.63;;
18407;SDS011;9330;52.210;21.174;2023-07-20T08:04:03;5.47;;;4.00;;
18407;SDS011;9330;52.210;21.174;2023-07-20T08:06:30;6.35;;;3.97;;
18407;SDS011;9330;52.210;21.174;2023-07-20T08:08:58;4.50;;;3.70;;
18407;SDS011;9330;52.210;21.174;2023-07-20T08:11:25;5.90;;;5.40;;
18407;SDS011;9330;52.210;21.174;2023-07-20T08:13:52;4.88;;;3.90;;
18407;SDS011;9330;52.210;21.174;2023-07-20T08:16:19;4.22;;;3.60;;
18407;SDS011;9330;52.210;21.174;2023-07-20T08:18:46;6.28;;;3.92;;
18407;SDS011;9330;52.210;21.174;2023-07-20T08:21:13;4.80;;;3.55;;
18407;SDS011;9330;52.210;21.174;2023-07-20T08:23:40;4.30;;;3.90;;
18407;SDS011;9330;52.210;21.174;2023-07-20T08:26:08;6.28;;;3.80;;
18407;SDS011;9330;52.210;21.174;2023-07-20T08:28:35;4.75;;;3.70;;
18407;SDS011;9330;52.210;21.174;2023-07-20T08:31:02;4.45;;;4.05;;
18407;SDS011;9330;52.210;21.174;2023-07-20T08:33:31;4.57;;;4.00;;
18407;SDS011;9330;52.210;21.174;2023-07-20T08:36:00;5.13;;;3.75;;
18407;SDS011;9330;52.210;21.174;2023-07-20T08:38:31;5.25;;;4.53;;
18407;SDS011;9330;52.210;21.174;2023-07-20T08:40:57;7.03;;;4.53;;
18407;SDS011;9330;52.210;21.174;2023-07-20T08:43:28;4.68;;;4.07;;
18407;SDS011;9330;52.210;21.174;2023-07-20T08:45:56;5.38;;;4.07;;
18407;SDS011;9330;52.210;21.174;2023-07-20T08:48:24;4.90;;;3.92;;
18407;SDS011;9330;52.210;21.174;2023-07-20T08:50:53;7.88;;;4.20;;
18407;SDS011;9330;52.210;21.174;2023-07-20T08:53:21;6.00;;;4.75;;
18407;SDS011;9330;52.210;21.174;2023-07-20T08:55:48;6.57;;;4.45;;
18407;SDS011;9330;52.210;21.174;2023-07-20T08:58:16;5.03;;;4.20;;
18407;SDS011;9330;52.210;21.174;2023-07-20T09:00:45;6.72;;;4.25;;
18407;SDS011;9330;52.210;21.174;2023-07-20T09:03:16;5.43;;;4.25;;
18407;SDS011;9330;52.210;21.174;2023-07-20T09:05:44;5.15;;;3.80;;
18407;SDS011;9330;52.210;21.174;2023-07-20T09:08:11;4.20;;;3.63;;
18407;SDS011;9330;52.210;21.174;2023-07-20T09:10:38;5.72;;;5.00;;
18407;SDS011;9330;52.210;21.174;2023-07-20T09:13:04;4.20;;;3.80;;
18407;SDS011;9330;52.210;21.174;2023-07-20T09:15:31;3.92;;;3.33;;
18407;SDS011;9330;52.210;21.174;2023-07-20T09:18:01;5.63;;;4.90;;
18407;SDS011;9330;52.210;21.174;2023-07-20T09:20:31;5.03;;;4.32;;
18407;SDS011;9330;52.210;21.174;2023-07-20T09:22:59;6.35;;;5.20;;
18407;SDS011;9330;52.210;21.174;2023-07-20T09:25:30;5.20;;;4.40;;
18407;SDS011;9330;52.210;21.174;2023-07-20T09:27:59;5.55;;;4.82;;
18407;SDS011;9330;52.210;21.174;2023-07-20T09:30:29;7.07;;;5.20;;
18407;SDS011;9330;52.210;21.174;2023-07-20T09:32:56;5.18;;;4.47;;
18407;SDS011;9330;52.210;21.174;2023-07-20T09:35:25;6.35;;;4.55;;
18407;SDS011;9330;52.210;21.174;2023-07-20T09:37:53;5.32;;;4.18;;
18407;SDS011;9330;52.210;21.174;2023-07-20T09:40:21;5.25;;;4.00;;
18407;SDS011;9330;52.210;21.174;2023-07-20T09:42:51;4.35;;;3.88;;
18407;SDS011;9330;52.210;21.174;2023-07-20T09:45:27;6.55;;;3.97;;
18407;SDS011;9330;52.210;21.174;2023-07-20T09:48:00;3.83;;;3.38;;
18407;SDS011;9330;52.210;21.174;2023-07-20T09:50:31;5.75;;;4.30;;
18407;SDS011;9330;52.210;21.174;2023-07-20T09:52:58;5.05;;;3.92;;
18407;SDS011;9330;52.210;21.174;2023-07-20T09:55:26;5.57;;;4.53;;
18407;SDS011;9330;52.210;21.174;2023-07-20T09:57:55;4.40;;;3.65;;
18407;SDS011;9330;52.210;21.174;2023-07-20T10:00:23;3.50;;;2.90;;
18407;SDS011;9330;52.210;21.174;2023-07-20T10:02:50;6.45;;;3.60;;
18407;SDS011;9330;52.210;21.174;2023-07-20T10:05:18;4.32;;;2.65;;
18407;SDS011;9330;52.210;21.174;2023-07-20T10:07:48;4.40;;;3.05;;
18407;SDS011;9330;52.210;21.174;2023-07-20T10:10:17;3.85;;;3.00;;
18407;SDS011;9330;52.210;21.174;2023-07-20T10:12:46;3.25;;;2.40;;
18407;SDS011;9330;52.210;21.174;2023-07-20T10:15:15;3.65;;;2.20;;
18407;SDS011;9330;52.210;21.174;2023-07-20T10:17:49;2.72;;;2.30;;
18407;SDS011;9330;52.210;21.174;2023-07-20T10:20:23;2.90;;;2.10;;
18407;SDS011;9330;52.210;21.174;2023-07-20T10:22:54;3.90;;;2.20;;
18407;SDS011;9330;52.210;21.174;2023-07-20T10:25:23;2.55;;;2.05;;
18407;SDS011;9330;52.210;21.174;2023-07-20T10:27:50;5.18;;;2.10;;
18407;SDS011;9330;52.210;21.174;2023-07-20T10:30:18;2.97;;;2.20;;
18407;SDS011;9330;52.210;21.174;2023-07-20T10:32:45;4.07;;;2.03;;
18407;SDS011;9330;52.210;21.174;2023-07-20T10:35:14;3.20;;;1.90;;
18407;SDS011;9330;52.210;21.174;2023-07-20T10:37:49;3.67;;;2.03;;
18407;SDS011;9330;52.210;21.174;2023-07-20T10:40:26;4.07;;;2.28;;
18407;SDS011;9330;52.210;21.174;2023-07-20T10:42:59;2.70;;;1.75;;
18407;SDS011;9330;52.210;21.174;2023-07-20T10:45:33;4.55;;;2.35;;
18407;SDS011;9330;52.210;21.174;2023-07-20T10:48:04;4.68;;;2.20;;
18407;SDS011;9330;52.210;21.174;2023-07-20T10:50:32;3.42;;;2.42;;
18407;SDS011;9330;52.210;21.174;2023-07-20T10:53:10;2.53;;;2.10;;
18407;SDS011;9330;52.210;21.174;2023-07-20T10:55:39;2.78;;;2.20;;
18407;SDS011;9330;52.210;21.174;2023-07-20T10:58:08;3.38;;;2.40;;
18407;SDS011;9330;52.210;21.174;2023-07-20T11:00:37;2.35;;;2.15;;
18407;SDS011;9330;52.210;21.174;2023-07-20T11:03:04;2.38;;;2.00;;
18407;SDS011;9330;52.210;21.174;2023-07-20T11:05:35;2.90;;;2.08;;
18407;SDS011;9330;52.210;21.174;2023-07-20T11:08:04;3.25;;;2.00;;
18407;SDS011;9330;52.210;21.174;2023-07-20T11:10:33;4.95;;;1.95;;
18407;SDS011;9330;52.210;21.174;2023-07-20T11:13:20;2.13;;;1.80;;
18407;SDS011;9330;52.210;21.174;2023-07-20T11:16:03;4.68;;;2.30;;
18407;SDS011;9330;52.210;21.174;2023-07-20T11:18:33;5.22;;;2.70;;
18407;SDS011;9330;52.210;21.174;2023-07-20T11:21:06;3.25;;;2.13;;
18407;SDS011;9330;52.210;21.174;2023-07-20T11:23:37;5.55;;;2.30;;
18407;SDS011;9330;52.210;21.174;2023-07-20T11:26:06;2.35;;;2.00;;
18407;SDS011;9330;52.210;21.174;2023-07-20T11:28:35;2.33;;;2.13;;
18407;SDS011;9330;52.210;21.174;2023-07-20T11:31:02;3.75;;;2.00;;
18407;SDS011;9330;52.210;21.174;2023-07-20T11:33:29;2.22;;;2.03;;
18407;SDS011;9330;52.210;21.174;2023-07-20T11:35:56;2.10;;;1.90;;
18407;SDS011;9330;52.210;21.174;2023-07-20T11:38:23;2.20;;;2.00;;
18407;SDS011;9330;52.210;21.174;2023-07-20T11:40:50;2.55;;;2.35;;
18407;SDS011;9330;52.210;21.174;2023-07-20T11:43:18;2.92;;;2.25;;
18407;SDS011;9330;52.210;21.174;2023-07-20T11:45:49;1.67;;;1.58;;
18407;SDS011;9330;52.210;21.174;2023-07-20T11:48:16;2.53;;;2.15;;
18407;SDS011;9330;52.210;21.174;2023-07-20T11:50:43;5.63;;;2.10;;
18407;SDS011;9330;52.210;21.174;2023-07-20T11:53:10;1.92;;;1.67;;
18407;SDS011;9330;52.210;21.174;2023-07-20T11:55:38;2.00;;;1.77;;
18407;SDS011;9330;52.210;21.174;2023-07-20T11:58:06;1.40;;;1.13;;
18407;SDS011;9330;52.210;21.174;2023-07-20T12:00:34;2.25;;;1.52;;
18407;SDS011;9330;52.210;21.174;2023-07-20T12:03:04;2.75;;;1.50;;
18407;SDS011;9330;52.210;21.174;2023-07-20T12:05:32;2.60;;;1.90;;
18407;SDS011;9330;52.210;21.174;2023-07-20T12:07:59;3.45;;;1.88;;
18407;SDS011;9330;52.210;21.174;2023-07-20T12:10:27;2.30;;;1.70;;
18407;SDS011;9330;52.210;21.174;2023-07-20T12:12:55;2.38;;;1.50;;
18407;SDS011;9330;52.210;21.174;2023-07-20T12:15:28;2.55;;;1.65;;
18407;SDS011;9330;52.210;21.174;2023-07-20T12:17:57;2.38;;;1.58;;
18407;SDS011;9330;52.210;21.174;2023-07-20T12:20:26;2.55;;;1.65;;
18407;SDS011;9330;52.210;21.174;2023-07-20T12:22:56;3.45;;;1.70;;
18407;SDS011;9330;52.210;21.174;2023-07-20T12:25:32;2.17;;;1.55;;
18407;SDS011;9330;52.210;21.174;2023-07-20T12:28:06;2.72;;;1.20;;
18407;SDS011;9330;52.210;21.174;2023-07-20T12:30:34;1.67;;;1.30;;
18407;SDS011;9330;52.210;21.174;2023-07-20T12:33:01;1.83;;;1.40;;
18407;SDS011;9330;52.210;21.174;2023-07-20T12:35:30;1.83;;;1.42;;
18407;SDS011;9330;52.210;21.174;2023-07-20T12:37:57;3.47;;;1.45;;
18407;SDS011;9330;52.210;21.174;2023-07-20T12:40:24;2.05;;;1.40;;
18407;SDS011;9330;52.210;21.174;2023-07-20T12:42:51;2.25;;;1.20;;
18407;SDS011;9330;52.210;21.174;2023-07-20T12:45:18;1.75;;;1.40;;
18407;SDS011;9330;52.210;21.174;2023-07-20T12:47:45;2.55;;;1.42;;
18407;SDS011;9330;52.210;21.174;2023-07-20T12:50:13;2.58;;;1.80;;
18407;SDS011;9330;52.210;21.174;2023-07-20T12:52:41;1.60;;;1.50;;
18407;SDS011;9330;52.210;21.174;2023-07-20T12:55:08;1.70;;;1.35;;
18407;SDS011;9330;52.210;21.174;2023-07-20T12:57:36;2.40;;;1.60;;
18407;SDS011;9330;52.210;21.174;2023-07-20T13:00:03;2.88;;;1.60;;
18407;SDS011;9330;52.210;21.174;2023-07-20T13:02:34;6.15;;;1.63;;
18407;SDS011;9330;52.210;21.174;2023-07-20T13:05:01;1.52;;;1.30;;
18407;SDS011;9330;52.210;21.174;2023-07-20T13:07:29;2.25;;;1.38;;
18407;SDS011;9330;52.210;21.174;2023-07-20T13:09:59;1.70;;;1.25;;
18407;SDS011;9330;52.210;21.174;2023-07-20T13:12:27;1.67;;;1.20;;
18407;SDS011;9330;52.210;21.174;2023-07-20T13:14:55;2.38;;;1.70;;
18407;SDS011;9330;52.210;21.174;2023-07-20T13:17:25;3.42;;;1.58;;
18407;SDS011;9330;52.210;21.174;2023-07-20T13:19:52;3.03;;;1.27;;
18407;SDS011;9330;52.210;21.174;2023-07-20T13:22:20;2.17;;;1.05;;
18407;SDS011;9330;52.210;21.174;2023-07-20T13:24:48;2.28;;;1.55;;
18407;SDS011;9330;52.210;21.174;2023-07-20T13:27:16;1.92;;;1.30;;
18407;SDS011;9330;52.210;21.174;2023-07-20T13:29:44;2.05;;;1.65;;
18407;SDS011;9330;52.210;21.174;2023-07-20T13:32:12;1.52;;;1.42;;
18407;SDS011;9330;52.210;21.174;2023-07-20T13:34:40;3.03;;;1.40;;
18407;SDS011;9330;52.210;21.174;2023-07-20T13:37:08;2.85;;;1.45;;
18407;SDS011;9330;52.210;21.174;2023-07-20T13:39:35;2.03;;;1.35;;
18407;SDS011;9330;52.210;21.174;2023-07-20T13:42:03;1.73;;;1.38;;
18407;SDS011;9330;52.210;21.174;2023-07-20T13:44:32;4.38;;;1.52;;
18407;SDS011;9330;52.210;21.174;2023-07-20T13:46:59;2.97;;;1.25;;
18407;SDS011;9330;52.210;21.174;2023-07-20T13:49:27;1.73;;;1.10;;
18407;SDS011;9330;52.210;21.174;2023-07-20T13:51:55;1.05;;;0.95;;
18407;SDS011;9330;52.210;21.174;2023-07-20T13:54:22;2.00;;;1.55;;
18407;SDS011;9330;52.210;21.174;2023-07-20T13:56:52;1.90;;;1.67;;
18407;SDS011;9330;52.210;21.174;2023-07-20T13:59:22;1.90;;;1.60;;
18407;SDS011;9330;52.210;21.174;2023-07-20T14:01:51;2.25;;;1.40;;
18407;SDS011;9330;52.210;21.174;2023-07-20T14:04:18;1.73;;;1.40;;
18407;SDS011;9330;52.210;21.174;2023-07-20T14:06:45;3.55;;;1.50;;
18407;SDS011;9330;52.210;21.174;2023-07-20T14:09:12;2.10;;;1.70;;
18407;SDS011;9330;52.210;21.174;2023-07-20T14:11:39;2.13;;;1.15;;
18407;SDS011;9330;52.210;21.174;2023-07-20T14:14:06;2.47;;;1.98;;
18407;SDS011;9330;52.210;21.174;2023-07-20T14:16:33;1.88;;;1.63;;
18407;SDS011;9330;52.210;21.174;2023-07-20T14:19:02;2.00;;;1.50;;
18407;SDS011;9330;52.210;21.174;2023-07-20T14:21:29;2.10;;;1.70;;
18407;SDS011;9330;52.210;21.174;2023-07-20T14:23:57;2.50;;;1.92;;
18407;SDS011;9330;52.210;21.174;2023-07-20T14:26:24;2.25;;;1.85;;
18407;SDS011;9330;52.210;21.174;2023-07-20T14:28:50;1.70;;;1.60;;
18407;SDS011;9330;52.210;21.174;2023-07-20T14:31:17;2.95;;;1.60;;
18407;SDS011;9330;52.210;21.174;2023-07-20T14:33:44;3.58;;;2.17;;
18407;SDS011;9330;52.210;21.174;2023-07-20T14:36:13;5.88;;;2.10;;
18407;SDS011;9330;52.210;21.174;2023-07-20T14:38:39;2.25;;;1.63;;
18407;SDS011;9330;52.210;21.174;2023-07-20T14:41:06;2.42;;;1.58;;
18407;SDS011;9330;52.210;21.174;2023-07-20T14:43:33;1.92;;;1.70;;
18407;SDS011;9330;52.210;21.174;2023-07-20T14:46:00;2.40;;;1.55;;
18407;SDS011;9330;52.210;21.174;2023-07-20T14:48:27;2.25;;;1.60;;
18407;SDS011;9330;52.210;21.174;2023-07-20T14:50:54;2.58;;;1.30;;
18407;SDS011;9330;52.210;21.174;2023-07-20T14:53:22;1.85;;;1.08;;
18407;SDS011;9330;52.210;21.174;2023-07-20T14:55:49;1.73;;;1.35;;